Time;durP1;ratioP1;P1;durP2;ratioP2;P2;SDS_P1;SDS_P2;PMS_P1;PMS_P2;Temp;Humidity;BMP_temperature;BMP_pressure;BME280_temperature;BME280_humidity;BME280_pressure;Samples;Min_cycle;Max_cycle;Signal;HPM_P1;HPM_P2
2023/03/07 00:00:25;;;;;;;13.63;7.53;;;;;;;;;;4991141;28;20057;-73
2023/03/07 00:02:51;;;;;;;15.13;8.65;;;;;;;;;;4989224;28;20084;-72
2023/03/07 00:05:16;;;;;;;18.98;9.18;;;;;;;;;;4990794;28;20310;-71
2023/03/07 00:07:41;;;;;;;18.95;9.00;;;;;;;;;;5012172;28;20041;-74
2023/03/07 00:10:07;;;;;;;14.60;7.63;;;;;;;;;;4994142;28;20073;-71
2023/03/07 00:12:32;;;;;;;14.75;8.05;;;;;;;;;;5012062;28;20277;-71
2023/03/07 00:14:57;;;;;;;15.33;7.90;;;;;;;;;;4994405;28;20566;-73
2023/03/07 00:17:22;;;;;;;16.43;8.53;;;;;;;;;;4995987;28;20640;-73
2023/03/07 00:19:48;;;;;;;15.02;7.78;;;;;;;;;;5010976;28;20280;-72
2023/03/07 00:22:13;;;;;;;13.77;7.72;;;;;;;;;;4993140;28;20099;-72
2023/03/07 00:24:38;;;;;;;15.18;8.45;;;;;;;;;;4994171;28;20030;-72
2023/03/07 00:27:04;;;;;;;16.50;8.02;;;;;;;;;;5003831;28;20021;-71
2023/03/07 00:29:29;;;;;;;16.27;8.13;;;;;;;;;;4985237;28;20477;-72
2023/03/07 00:31:54;;;;;;;13.67;8.20;;;;;;;;;;4991527;28;20477;-72
2023/03/07 00:34:19;;;;;;;13.00;7.10;;;;;;;;;;4995929;28;20268;-73
2023/03/07 00:36:45;;;;;;;13.95;7.30;;;;;;;;;;4999651;28;20033;-78
2023/03/07 00:39:10;;;;;;;12.43;7.13;;;;;;;;;;5002910;28;20624;-79
2023/03/07 00:41:35;;;;;;;11.43;6.72;;;;;;;;;;5005807;28;20042;-76
2023/03/07 00:44:00;;;;;;;17.08;8.77;;;;;;;;;;4993429;28;20025;-78
2023/03/07 00:46:25;;;;;;;13.63;7.60;;;;;;;;;;5011014;28;20496;-77
2023/03/07 00:48:51;;;;;;;17.50;9.38;;;;;;;;;;4992001;28;20324;-78
2023/03/07 00:51:17;;;;;;;16.65;7.28;;;;;;;;;;5010717;28;20061;-77
2023/03/07 00:53:42;;;;;;;13.40;7.03;;;;;;;;;;5012300;28;20702;-85
2023/03/07 00:56:12;;;;;;;16.27;8.13;;;;;;;;;;5001774;28;20025;-72
2023/03/07 00:58:37;;;;;;;14.57;7.80;;;;;;;;;;5002645;28;20045;-72
2023/03/07 01:01:04;;;;;;;14.45;7.25;;;;;;;;;;4993768;28;20029;-72
2023/03/07 01:03:29;;;;;;;14.80;8.27;;;;;;;;;;5004046;28;20080;-73
2023/03/07 01:05:54;;;;;;;14.85;7.63;;;;;;;;;;4982374;28;20113;-74
2023/03/07 01:08:20;;;;;;;14.10;7.55;;;;;;;;;;4984243;28;20249;-72
2023/03/07 01:10:47;;;;;;;14.50;7.63;;;;;;;;;;4992274;28;20026;-77
2023/03/07 01:13:12;;;;;;;17.15;7.90;;;;;;;;;;5005666;28;20396;-77
2023/03/07 01:15:38;;;;;;;14.77;7.60;;;;;;;;;;4982993;28;20022;-78
2023/03/07 01:18:04;;;;;;;14.55;7.32;;;;;;;;;;4983353;28;20030;-75
2023/03/07 01:20:32;;;;;;;14.02;7.82;;;;;;;;;;5011088;28;20085;-76
2023/03/07 01:22:57;;;;;;;12.65;6.93;;;;;;;;;;5011556;28;20087;-77
2023/03/07 01:25:23;;;;;;;12.18;7.15;;;;;;;;;;5002703;28;20446;-76
2023/03/07 01:27:50;;;;;;;13.60;7.10;;;;;;;;;;5006781;28;20456;-76
2023/03/07 01:30:15;;;;;;;13.18;7.00;;;;;;;;;;4986461;28;20051;-72
2023/03/07 01:32:40;;;;;;;13.15;7.68;;;;;;;;;;5009189;28;20084;-75
2023/03/07 01:35:06;;;;;;;13.00;7.30;;;;;;;;;;5006357;28;20521;-75
2023/03/07 01:37:31;;;;;;;11.95;6.93;;;;;;;;;;5011150;28;20831;-75
2023/03/07 01:39:56;;;;;;;15.85;7.93;;;;;;;;;;4994807;28;20355;-75
2023/03/07 01:42:21;;;;;;;13.98;6.63;;;;;;;;;;5006092;28;20246;-76
2023/03/07 01:44:58;;;;;;;14.93;7.57;;;;;;;;;;4990078;28;20093;-75
2023/03/07 01:47:23;;;;;;;13.13;7.35;;;;;;;;;;5008915;28;20544;-72
2023/03/07 01:49:48;;;;;;;12.73;7.37;;;;;;;;;;4987947;28;20064;-72
2023/03/07 01:52:16;;;;;;;14.15;7.15;;;;;;;;;;5010148;28;20280;-75
2023/03/07 01:54:47;;;;;;;14.95;7.50;;;;;;;;;;4990050;28;20266;-74
2023/03/07 01:57:13;;;;;;;13.85;6.82;;;;;;;;;;5004753;28;20411;-75
2023/03/07 01:59:41;;;;;;;13.27;7.50;;;;;;;;;;4992936;28;20025;-75
2023/03/07 02:02:08;;;;;;;13.70;7.00;;;;;;;;;;5010488;28;20033;-75
2023/03/07 02:04:45;;;;;;;13.60;7.30;;;;;;;;;;5008296;28;20259;-74
2023/03/07 02:07:12;;;;;;;12.82;7.65;;;;;;;;;;5009353;28;20126;-72
2023/03/07 02:09:38;;;;;;;13.70;7.00;;;;;;;;;;5004385;28;20088;-76
2023/03/07 02:12:03;;;;;;;13.30;6.70;;;;;;;;;;4994904;28;20038;-78
2023/03/07 02:14:28;;;;;;;12.90;6.20;;;;;;;;;;5009864;28;20487;-79
2023/03/07 02:16:53;;;;;;;15.88;7.32;;;;;;;;;;5010735;28;20499;-78
2023/03/07 02:19:33;;;;;;;13.55;7.18;;;;;;;;;;4996788;28;20627;-77
2023/03/07 02:22:07;;;;;;;14.27;7.30;;;;;;;;;;5000994;28;20033;-78
2023/03/07 02:24:51;;;;;;;12.82;7.22;;;;;;;;;;5011842;28;20029;-75
2023/03/07 02:27:16;;;;;;;14.32;8.10;;;;;;;;;;4997049;28;20085;-75
2023/03/07 02:29:42;;;;;;;12.25;6.40;;;;;;;;;;5004002;28;20116;-74
2023/03/07 02:32:07;;;;;;;13.25;7.43;;;;;;;;;;5009827;28;20105;-74
2023/03/07 02:34:33;;;;;;;14.57;7.60;;;;;;;;;;5009461;28;20029;-74
2023/03/07 02:37:03;;;;;;;13.27;6.90;;;;;;;;;;5010015;28;20033;-74
2023/03/07 02:39:29;;;;;;;12.88;7.22;;;;;;;;;;5004420;28;20018;-74
2023/03/07 02:41:55;;;;;;;11.48;6.68;;;;;;;;;;4996457;28;20022;-75
2023/03/07 02:44:20;;;;;;;14.60;7.55;;;;;;;;;;5013751;28;20080;-73
2023/03/07 02:46:46;;;;;;;18.03;8.00;;;;;;;;;;5002759;28;20034;-70
2023/03/07 02:49:11;;;;;;;11.77;6.97;;;;;;;;;;5002909;28;20773;-73
2023/03/07 02:51:37;;;;;;;13.25;7.15;;;;;;;;;;4983893;28;20029;-72
2023/03/07 02:54:02;;;;;;;12.68;7.53;;;;;;;;;;5001369;28;20029;-71
2023/03/07 02:56:27;;;;;;;13.98;8.40;;;;;;;;;;5009180;28;20025;-71
2023/03/07 02:58:52;;;;;;;13.43;7.25;;;;;;;;;;5008587;28;20124;-72
2023/03/07 03:01:18;;;;;;;13.03;7.67;;;;;;;;;;4993137;28;20108;-74
2023/03/07 03:03:43;;;;;;;14.70;9.20;;;;;;;;;;5009766;28;20953;-71
2023/03/07 03:06:09;;;;;;;11.95;6.88;;;;;;;;;;4991575;28;20683;-71
2023/03/07 03:08:34;;;;;;;19.38;7.15;;;;;;;;;;4991613;28;20025;-71
2023/03/07 03:10:59;;;;;;;13.13;7.05;;;;;;;;;;4991140;28;20465;-72
2023/03/07 03:13:25;;;;;;;16.05;7.78;;;;;;;;;;5008745;28;20422;-71
2023/03/07 03:15:53;;;;;;;15.85;7.00;;;;;;;;;;5001798;28;20030;-71
2023/03/07 03:18:18;;;;;;;16.23;7.50;;;;;;;;;;5015784;28;20060;-72
2023/03/07 03:20:44;;;;;;;12.90;7.17;;;;;;;;;;5003253;28;20128;-70
2023/03/07 03:23:09;;;;;;;14.63;8.47;;;;;;;;;;5000739;28;20289;-72
2023/03/07 03:25:34;;;;;;;14.68;7.30;;;;;;;;;;4987592;28;20453;-72
2023/03/07 03:27:59;;;;;;;11.98;6.28;;;;;;;;;;4988913;28;20396;-73
2023/03/07 03:30:27;;;;;;;13.67;7.00;;;;;;;;;;4981111;28;20030;-73
2023/03/07 03:32:52;;;;;;;15.65;8.52;;;;;;;;;;5007987;28;20277;-73
2023/03/07 03:35:18;;;;;;;12.38;7.38;;;;;;;;;;4986831;28;20038;-73
2023/03/07 03:37:43;;;;;;;14.02;8.48;;;;;;;;;;4991138;28;20064;-75
2023/03/07 03:40:13;;;;;;;12.32;7.07;;;;;;;;;;5007419;28;20061;-71
2023/03/07 03:42:38;;;;;;;;;;;;;;;;;;5003469;28;20030;-76
2023/03/07 03:45:03;;;;;;;12.75;6.82;;;;;;;;;;4987323;28;20041;-77
2023/03/07 03:47:28;;;;;;;14.80;7.35;;;;;;;;;;5000479;28;20041;-77
2023/03/07 03:49:54;;;;;;;14.35;7.78;;;;;;;;;;5013107;28;20030;-76
2023/03/07 03:52:19;;;;;;;16.17;9.18;;;;;;;;;;5009789;28;20445;-78
2023/03/07 03:54:44;;;;;;;15.60;7.30;;;;;;;;;;4985223;28;20127;-77
2023/03/07 03:57:14;;;;;;;13.50;8.03;;;;;;;;;;5005601;28;20045;-72
2023/03/07 03:59:39;;;;;;;15.05;7.63;;;;;;;;;;5005395;28;20285;-73
2023/03/07 04:02:05;;;;;;;17.57;8.63;;;;;;;;;;4975592;28;20057;-72
2023/03/07 04:04:30;;;;;;;14.27;8.77;;;;;;;;;;4989995;28;20285;-71
2023/03/07 04:06:55;;;;;;;15.10;7.37;;;;;;;;;;4993837;28;20285;-72
2023/03/07 04:09:20;;;;;;;14.05;7.07;;;;;;;;;;5006691;28;20277;-74
2023/03/07 04:11:45;;;;;;;13.87;7.77;;;;;;;;;;5011658;28;20030;-73
2023/03/07 04:14:11;;;;;;;15.27;8.53;;;;;;;;;;5012602;28;20269;-72
2023/03/07 04:16:36;;;;;;;14.27;7.93;;;;;;;;;;4980615;28;20338;-84
2023/03/07 04:19:01;;;;;;;13.60;7.90;;;;;;;;;;4988797;28;20288;-76
2023/03/07 04:21:26;;;;;;;17.65;8.88;;;;;;;;;;5010120;28;20528;-78
2023/03/07 04:23:54;;;;;;;12.88;7.55;;;;;;;;;;5013922;28;20113;-77
2023/03/07 04:26:19;;;;;;;14.43;8.48;;;;;;;;;;5011680;28;20037;-76
2023/03/07 04:28:45;;;;;;;17.83;7.43;;;;;;;;;;5010363;28;20622;-77
2023/03/07 04:31:11;;;;;;;14.18;7.97;;;;;;;;;;5009744;28;20449;-77
2023/03/07 04:33:37;;;;;;;16.02;9.70;;;;;;;;;;5004548;28;20047;-71
2023/03/07 04:36:02;;;;;;;15.55;9.05;;;;;;;;;;4987790;28;20373;-73
2023/03/07 04:38:27;;;;;;;13.98;8.07;;;;;;;;;;4992621;28;20034;-75
2023/03/07 04:40:52;;;;;;;17.40;10.10;;;;;;;;;;4986812;28;20037;-74
2023/03/07 04:43:18;;;;;;;17.08;8.65;;;;;;;;;;5012175;28;20284;-75
2023/03/07 04:45:43;;;;;;;18.25;9.07;;;;;;;;;;5011864;28;20033;-74
2023/03/07 04:48:08;;;;;;;13.43;8.00;;;;;;;;;;4984292;28;20877;-74
2023/03/07 04:50:33;;;;;;;15.37;8.23;;;;;;;;;;4982113;28;20836;-73
2023/03/07 04:52:58;;;;;;;15.15;7.82;;;;;;;;;;4999816;28;20303;-86
2023/03/07 04:55:24;;;;;;;14.83;9.00;;;;;;;;;;5018553;28;20415;-73
2023/03/07 04:57:50;;;;;;;15.02;9.02;;;;;;;;;;4992773;28;20296;-72
2023/03/07 05:00:16;;;;;;;16.77;8.15;;;;;;;;;;4978799;28;20030;-73
2023/03/07 05:02:43;;;;;;;14.88;8.77;;;;;;;;;;4993710;28;20729;-74
2023/03/07 05:05:09;;;;;;;19.23;8.57;;;;;;;;;;5011738;28;20034;-72
2023/03/07 05:07:34;;;;;;;13.90;7.57;;;;;;;;;;4999662;28;20114;-72
2023/03/07 05:09:59;;;;;;;14.38;8.20;;;;;;;;;;4988792;28;20396;-86
2023/03/07 05:12:24;;;;;;;15.37;8.30;;;;;;;;;;5015976;28;20076;-75
2023/03/07 05:14:50;;;;;;;15.25;8.32;;;;;;;;;;4994203;28;20280;-76
2023/03/07 05:17:15;;;;;;;15.93;8.65;;;;;;;;;;5010658;28;20065;-77
2023/03/07 05:19:40;;;;;;;15.73;8.77;;;;;;;;;;5000616;28;20030;-77
2023/03/07 05:22:06;;;;;;;12.73;7.65;;;;;;;;;;4993506;28;20026;-77
2023/03/07 05:24:31;;;;;;;15.95;8.70;;;;;;;;;;5016639;28;20038;-77
2023/03/07 05:26:57;;;;;;;15.90;7.93;;;;;;;;;;5010734;28;20033;-79
2023/03/07 05:29:22;;;;;;;15.50;8.47;;;;;;;;;;4986614;28;20029;-74
2023/03/07 05:31:47;;;;;;;13.88;7.50;;;;;;;;;;4999707;28;20269;-73
2023/03/07 05:34:14;;;;;;;14.65;8.77;;;;;;;;;;4990462;28;20027;-76
2023/03/07 05:36:39;;;;;;;14.88;7.72;;;;;;;;;;4987902;28;20406;-74
2023/03/07 05:39:05;;;;;;;14.77;7.88;;;;;;;;;;4995516;28;20026;-74
2023/03/07 05:41:30;;;;;;;14.67;8.53;;;;;;;;;;5007022;28;20160;-74
2023/03/07 05:43:57;;;;;;;15.93;7.90;;;;;;;;;;4985563;28;20851;-73
2023/03/07 05:46:22;;;;;;;14.40;8.65;;;;;;;;;;4988336;28;20116;-75
2023/03/07 05:48:47;;;;;;;14.60;8.57;;;;;;;;;;5012487;28;20165;-78
2023/03/07 05:51:12;;;;;;;14.53;7.10;;;;;;;;;;5004253;28;20357;-86
2023/03/07 05:53:38;;;;;;;14.60;7.33;;;;;;;;;;5003117;28;20919;-85
2023/03/07 05:56:03;;;;;;;14.90;8.32;;;;;;;;;;5011707;28;20301;-86
2023/03/07 05:58:28;;;;;;;14.57;6.97;;;;;;;;;;5014760;28;20033;-86
2023/03/07 06:00:53;;;;;;;14.43;8.67;;;;;;;;;;5013137;28;20091;-86
2023/03/07 06:03:19;;;;;;;17.75;8.35;;;;;;;;;;5005177;28;21110;-86
2023/03/07 06:05:47;;;;;;;13.53;7.00;;;;;;;;;;5005675;28;20057;-73
2023/03/07 06:08:12;;;;;;;19.73;8.85;;;;;;;;;;4985972;28;20356;-72
2023/03/07 06:10:38;;;;;;;15.38;8.65;;;;;;;;;;5000964;28;20121;-74
2023/03/07 06:13:04;;;;;;;12.98;6.78;;;;;;;;;;5008528;28;20239;-73
2023/03/07 06:15:29;;;;;;;11.40;6.68;;;;;;;;;;4973973;28;20041;-72
2023/03/07 06:17:54;;;;;;;14.30;7.75;;;;;;;;;;4997797;28;20269;-71
2023/03/07 06:20:19;;;;;;;13.65;7.20;;;;;;;;;;4987891;28;20241;-72
2023/03/07 06:22:45;;;;;;;17.50;8.80;;;;;;;;;;4990755;28;20485;-73
2023/03/07 06:25:10;;;;;;;13.20;7.15;;;;;;;;;;4984435;28;20547;-78
2023/03/07 06:27:36;;;;;;;13.20;7.90;;;;;;;;;;5011212;28;20293;-77
2023/03/07 06:30:02;;;;;;;14.13;7.13;;;;;;;;;;5012448;28;20706;-76
2023/03/07 06:32:29;;;;;;;14.20;6.93;;;;;;;;;;4988525;28;20046;-75
2023/03/07 06:34:54;;;;;;;14.45;8.00;;;;;;;;;;4985974;28;20068;-78
2023/03/07 06:37:19;;;;;;;12.23;7.10;;;;;;;;;;5006037;28;20057;-76
2023/03/07 06:39:44;;;;;;;15.40;7.43;;;;;;;;;;5007257;28;20436;-76
2023/03/07 06:42:10;;;;;;;13.50;7.20;;;;;;;;;;5006056;28;20633;-72
2023/03/07 06:44:35;;;;;;;14.10;7.85;;;;;;;;;;4983485;28;20678;-72
2023/03/07 06:47:00;;;;;;;13.40;8.20;;;;;;;;;;5003451;28;20056;-72
2023/03/07 06:49:26;;;;;;;13.32;7.05;;;;;;;;;;5004185;28;20449;-72
2023/03/07 06:51:51;;;;;;;12.82;7.20;;;;;;;;;;4988359;28;20473;-71
2023/03/07 06:54:16;;;;;;;13.55;7.30;;;;;;;;;;4984434;28;20401;-73
2023/03/07 06:56:41;;;;;;;17.13;6.90;;;;;;;;;;4999313;28;20041;-73
2023/03/07 06:59:07;;;;;;;13.82;7.68;;;;;;;;;;4991899;28;20382;-72
2023/03/07 07:01:34;;;;;;;14.65;7.30;;;;;;;;;;5000532;28;20500;-78
2023/03/07 07:03:59;;;;;;;12.40;6.68;;;;;;;;;;5009988;28;20034;-78
2023/03/07 07:06:25;;;;;;;13.68;7.53;;;;;;;;;;5010435;28;20036;-79
2023/03/07 07:08:52;;;;;;;12.83;6.17;;;;;;;;;;4992256;28;20798;-76
2023/03/07 07:11:18;;;;;;;13.70;7.15;;;;;;;;;;5009928;28;20264;-79
2023/03/07 07:13:44;;;;;;;13.25;7.82;;;;;;;;;;5010074;28;20036;-79
2023/03/07 07:16:10;;;;;;;15.40;7.25;;;;;;;;;;4991747;28;20095;-77
2023/03/07 07:18:35;;;;;;;13.90;7.10;;;;;;;;;;5010055;28;20030;-71
2023/03/07 07:21:01;;;;;;;14.13;7.47;;;;;;;;;;5009243;28;20504;-74
2023/03/07 07:23:26;;;;;;;12.50;6.70;;;;;;;;;;4991990;28;20585;-78
2023/03/07 07:25:52;;;;;;;12.88;7.32;;;;;;;;;;4991776;28;20087;-80
2023/03/07 07:28:17;;;;;;;12.20;6.75;;;;;;;;;;4991870;28;20026;-78
2023/03/07 07:30:42;;;;;;;15.77;7.22;;;;;;;;;;5009443;28;20481;-80
2023/03/07 07:33:07;;;;;;;11.50;6.60;;;;;;;;;;5000109;28;20030;-79
2023/03/07 07:35:33;;;;;;;11.40;6.15;;;;;;;;;;5009555;28;20272;-76
2023/03/07 07:37:58;;;;;;;15.43;7.95;;;;;;;;;;5009465;28;20040;-78
2023/03/07 07:40:23;;;;;;;14.50;7.70;;;;;;;;;;5008973;28;20577;-72
2023/03/07 07:42:53;;;;;;;12.52;7.50;;;;;;;;;;5009587;28;20045;-72
2023/03/07 07:45:18;;;;;;;13.63;7.57;;;;;;;;;;4991557;28;20150;-72
2023/03/07 07:47:46;;;;;;;12.25;7.10;;;;;;;;;;4991596;28;20556;-71
2023/03/07 07:50:13;;;;;;;10.85;6.50;;;;;;;;;;4998360;28;20018;-71
2023/03/07 07:52:38;;;;;;;11.25;6.70;;;;;;;;;;4995759;28;20036;-71
2023/03/07 07:55:03;;;;;;;11.98;6.97;;;;;;;;;;4991551;28;20401;-71
2023/03/07 07:57:29;;;;;;;14.20;7.75;;;;;;;;;;4991217;28;20022;-76
2023/03/07 07:59:54;;;;;;;13.93;6.85;;;;;;;;;;4991448;28;20640;-71
2023/03/07 08:02:19;;;;;;;12.60;7.63;;;;;;;;;;4990412;28;20041;-72
2023/03/07 08:04:46;;;;;;;11.85;6.78;;;;;;;;;;5015768;28;20068;-70
2023/03/07 08:07:12;;;;;;;13.05;6.97;;;;;;;;;;4992616;28;20584;-71
2023/03/07 08:09:38;;;;;;;12.15;7.28;;;;;;;;;;5008300;28;20124;-71
2023/03/07 08:12:03;;;;;;;12.75;7.35;;;;;;;;;;4991014;28;20803;-71
2023/03/07 08:14:29;;;;;;;14.05;7.28;;;;;;;;;;4990837;28;20089;-74
2023/03/07 08:16:54;;;;;;;12.90;6.68;;;;;;;;;;4990982;28;20488;-75
2023/03/07 08:19:19;;;;;;;13.27;7.28;;;;;;;;;;4991526;28;20032;-77
2023/03/07 08:21:44;;;;;;;11.25;6.78;;;;;;;;;;5009114;28;20037;-75
2023/03/07 08:24:10;;;;;;;13.50;7.40;;;;;;;;;;5022717;28;20064;-75
2023/03/07 08:26:35;;;;;;;15.15;7.85;;;;;;;;;;5010522;28;20340;-77
2023/03/07 08:29:00;;;;;;;15.82;8.20;;;;;;;;;;5012432;28;20392;-75
2023/03/07 08:31:25;;;;;;;13.23;6.68;;;;;;;;;;5012819;28;20026;-77
2023/03/07 08:33:51;;;;;;;13.18;7.00;;;;;;;;;;5013031;28;20030;-77
2023/03/07 08:36:17;;;;;;;13.02;7.57;;;;;;;;;;5000289;28;20030;-76
2023/03/07 08:38:42;;;;;;;12.57;7.68;;;;;;;;;;5015130;28;20041;-75
2023/03/07 08:41:08;;;;;;;12.25;7.15;;;;;;;;;;4986106;28;20031;-76
2023/03/07 08:43:35;;;;;;;12.80;7.40;;;;;;;;;;5012159;28;20022;-76
2023/03/07 08:46:00;;;;;;;13.13;7.82;;;;;;;;;;4994673;28;20092;-75
2023/03/07 08:48:26;;;;;;;11.48;7.15;;;;;;;;;;5011651;28;20417;-76
2023/03/07 08:50:51;;;;;;;11.93;6.20;;;;;;;;;;4979503;28;20030;-75
2023/03/07 08:53:17;;;;;;;12.85;8.20;;;;;;;;;;4986204;28;20033;-73
2023/03/07 08:55:42;;;;;;;12.90;7.57;;;;;;;;;;4994575;28;20512;-72
2023/03/07 08:58:08;;;;;;;12.50;7.18;;;;;;;;;;4994385;28;20652;-70
2023/03/07 09:00:33;;;;;;;12.60;6.50;;;;;;;;;;4994272;28;20515;-71
2023/03/07 09:03:00;;;;;;;15.40;7.68;;;;;;;;;;5012234;28;20465;-73
2023/03/07 09:05:25;;;;;;;13.80;6.30;;;;;;;;;;5012375;28;20026;-72
2023/03/07 09:07:51;;;;;;;13.02;7.10;;;;;;;;;;5015382;28;20044;-73
2023/03/07 09:10:18;;;;;;;12.57;7.10;;;;;;;;;;5010139;28;20611;-72
2023/03/07 09:12:43;;;;;;;9.23;5.55;;;;;;;;;;4991064;28;20277;-76
2023/03/07 09:15:08;;;;;;;10.05;5.28;;;;;;;;;;4994348;28;20026;-76
2023/03/07 09:17:34;;;;;;;10.07;5.55;;;;;;;;;;5012004;28;20847;-75
2023/03/07 09:19:59;;;;;;;9.60;5.47;;;;;;;;;;5012188;28;20465;-75
2023/03/07 09:22:25;;;;;;;10.18;5.30;;;;;;;;;;5012466;28;20334;-76
2023/03/07 09:24:50;;;;;;;8.70;5.38;;;;;;;;;;5012573;28;20034;-76
2023/03/07 09:27:16;;;;;;;10.80;5.37;;;;;;;;;;5012315;28;20266;-72
2023/03/07 09:29:41;;;;;;;8.37;4.93;;;;;;;;;;4993664;28;20718;-71
2023/03/07 09:32:06;;;;;;;9.73;5.63;;;;;;;;;;4993945;28;20684;-72
2023/03/07 09:34:31;;;;;;;9.95;5.13;;;;;;;;;;4994096;28;20597;-71
2023/03/07 09:36:57;;;;;;;11.50;5.93;;;;;;;;;;5011849;28;20593;-72
2023/03/07 09:39:22;;;;;;;10.82;4.72;;;;;;;;;;5013021;28;20508;-72
2023/03/07 09:41:52;;;;;;;11.35;5.35;;;;;;;;;;5000127;28;20026;-72
2023/03/07 09:44:36;;;;;;;10.15;5.03;;;;;;;;;;5011195;28;20133;-71
2023/03/07 09:47:14;;;;;;;10.50;5.38;;;;;;;;;;4993507;28;20022;-72
2023/03/07 09:49:46;;;;;;;9.45;5.40;;;;;;;;;;5001399;28;20033;-74
2023/03/07 09:52:18;;;;;;;9.05;4.90;;;;;;;;;;4997108;28;20034;-75
2023/03/07 09:55:04;;;;;;;10.57;4.88;;;;;;;;;;5011077;28;20088;-74
2023/03/07 09:57:31;;;;;;;10.65;5.40;;;;;;;;;;5011262;28;20110;-74
2023/03/07 10:00:04;;;;;;;9.10;4.65;;;;;;;;;;4993974;28;20030;-78
2023/03/07 10:03:02;;;;;;;10.40;5.63;;;;;;;;;;5010562;28;20036;-75
2023/03/07 10:05:27;;;;;;;8.90;5.18;;;;;;;;;;4976740;28;20504;-78
2023/03/07 10:07:53;;;;;;;9.75;4.82;;;;;;;;;;5011020;28;20153;-75
2023/03/07 10:10:23;;;;;;;9.10;5.00;;;;;;;;;;5010555;28;20045;-74
2023/03/07 10:12:48;;;;;;;10.25;5.00;;;;;;;;;;5018024;28;20026;-74
2023/03/07 10:15:16;;;;;;;9.40;4.93;;;;;;;;;;5009430;28;20049;-75
2023/03/07 10:17:47;;;;;;;8.18;4.47;;;;;;;;;;5008340;28;20289;-74
2023/03/07 10:20:27;;;;;;;10.50;5.05;;;;;;;;;;5010684;28;20088;-74
2023/03/07 10:23:20;;;;;;;9.98;5.03;;;;;;;;;;5010292;28;20026;-75
2023/03/07 10:26:00;;;;;;;11.25;5.45;;;;;;;;;;4993062;28;20085;-79
2023/03/07 10:28:28;;;;;;;10.73;5.55;;;;;;;;;;4997098;28;20033;-79
2023/03/07 10:30:57;;;;;;;12.63;5.35;;;;;;;;;;5010648;28;20030;-78
2023/03/07 10:33:22;;;;;;;9.23;5.47;;;;;;;;;;5010530;28;20033;-79
2023/03/07 10:35:55;;;;;;;10.88;5.40;;;;;;;;;;5010478;28;20029;-78
2023/03/07 10:38:30;;;;;;;8.75;4.90;;;;;;;;;;4992544;28;20483;-78
2023/03/07 10:40:57;;;;;;;11.43;6.18;;;;;;;;;;5010274;28;20040;-73
2023/03/07 10:43:24;;;;;;;10.40;5.47;;;;;;;;;;5011810;28;20037;-74
2023/03/07 10:45:52;;;;;;;12.30;6.05;;;;;;;;;;4998428;28;20125;-72
2023/03/07 10:48:19;;;;;;;9.45;5.13;;;;;;;;;;5009578;28;20077;-72
2023/03/07 10:50:54;;;;;;;11.13;5.70;;;;;;;;;;4994330;28;20073;-74
2023/03/07 10:53:26;;;;;;;10.00;5.68;;;;;;;;;;4986024;28;20061;-72
2023/03/07 10:56:06;;;;;;;11.95;5.53;;;;;;;;;;5009600;28;20026;-71
2023/03/07 10:58:31;;;;;;;9.90;5.15;;;;;;;;;;4992135;28;20559;-72
2023/03/07 11:01:17;;;;;;;10.27;5.60;;;;;;;;;;4992380;28;20213;-78
2023/03/07 11:04:01;;;;;;;11.20;5.78;;;;;;;;;;5009870;28;20283;-77
2023/03/07 11:06:38;;;;;;;11.35;5.40;;;;;;;;;;4993810;28;20030;-75
2023/03/07 11:09:14;;;;;;;14.57;5.93;;;;;;;;;;5004457;28;20281;-74
2023/03/07 11:11:45;;;;;;;11.02;5.57;;;;;;;;;;5009656;28;20488;-75
2023/03/07 11:14:11;;;;;;;10.05;5.72;;;;;;;;;;5010467;28;20108;-74
2023/03/07 11:16:41;;;;;;;13.27;6.07;;;;;;;;;;5016504;28;20029;-74
2023/03/07 11:19:06;;;;;;;;;;;;;;;;;;4993506;28;20108;-79
2023/03/07 11:21:32;;;;;;;11.15;5.63;;;;;;;;;;5009860;28;20004;-71
2023/03/07 11:24:18;;;;;;;9.63;4.78;;;;;;;;;;5009785;28;20033;-73
2023/03/07 11:26:43;;;;;;;9.48;5.53;;;;;;;;;;5008948;28;20042;-73
2023/03/07 11:29:10;;;;;;;9.90;5.50;;;;;;;;;;5012098;28;20061;-72
2023/03/07 11:31:53;;;;;;;9.27;5.88;;;;;;;;;;5017373;28;20264;-72
2023/03/07 11:34:37;;;;;;;13.23;5.65;;;;;;;;;;4992984;28;20057;-72
2023/03/07 11:37:22;;;;;;;12.13;6.07;;;;;;;;;;4992283;28;20028;-74
2023/03/07 11:40:05;;;;;;;12.63;5.97;;;;;;;;;;5005708;28;20053;-72
2023/03/07 11:42:37;;;;;;;9.77;5.57;;;;;;;;;;4999859;28;20041;-73
2023/03/07 11:45:09;;;;;;;13.73;5.85;;;;;;;;;;5009552;28;20022;-74
2023/03/07 11:47:35;;;;;;;10.23;5.90;;;;;;;;;;5012306;28;20030;-72
2023/03/07 11:50:19;;;;;;;11.00;5.67;;;;;;;;;;4995212;28;20113;-72
2023/03/07 11:52:50;;;;;;;12.38;6.38;;;;;;;;;;4991349;28;20041;-70
2023/03/07 11:55:16;;;;;;;10.52;5.47;;;;;;;;;;4985236;28;20164;-74
2023/03/07 11:57:50;;;;;;;8.83;5.03;;;;;;;;;;4991547;28;20121;-72
2023/03/07 12:00:22;;;;;;;10.88;5.30;;;;;;;;;;4991201;28;20037;-72
2023/03/07 12:03:02;;;;;;;9.30;4.97;;;;;;;;;;5011180;28;20031;-71
2023/03/07 12:05:56;;;;;;;10.93;6.35;;;;;;;;;;5012758;28;20068;-72
2023/03/07 12:08:27;;;;;;;11.20;5.53;;;;;;;;;;4988682;28;20038;-72
2023/03/07 12:11:05;;;;;;;9.73;4.75;;;;;;;;;;5002568;28;20042;-72
2023/03/07 12:13:43;;;;;;;10.85;5.03;;;;;;;;;;5012920;28;20484;-72
2023/03/07 12:16:18;;;;;;;10.02;5.35;;;;;;;;;;5012591;28;20053;-72
2023/03/07 12:19:02;;;;;;;8.60;4.88;;;;;;;;;;4977858;28;20040;-73
2023/03/07 12:21:46;;;;;;;11.63;5.20;;;;;;;;;;5003092;28;20224;-72
2023/03/07 12:24:18;;;;;;;17.20;5.80;;;;;;;;;;4992891;28;20523;-71
2023/03/07 12:26:43;;;;;;;11.00;5.90;;;;;;;;;;4992157;28;20034;-72
2023/03/07 12:29:12;;;;;;;9.87;5.50;;;;;;;;;;4992043;28;20036;-71
2023/03/07 12:31:49;;;;;;;11.85;5.75;;;;;;;;;;4991934;28;20026;-76
2023/03/07 12:34:22;;;;;;;11.57;5.22;;;;;;;;;;5012872;28;20492;-75
2023/03/07 12:36:59;;;;;;;8.73;5.40;;;;;;;;;;4994573;28;20105;-75
2023/03/07 12:39:31;;;;;;;10.50;5.40;;;;;;;;;;5012576;28;20033;-75
2023/03/07 12:42:02;;;;;;;10.27;5.85;;;;;;;;;;5012095;28;20034;-75
2023/03/07 12:44:35;;;;;;;12.32;5.18;;;;;;;;;;4995046;28;20233;-74
2023/03/07 12:47:14;;;;;;;10.18;5.20;;;;;;;;;;4994338;28;20081;-75
2023/03/07 12:49:54;;;;;;;10.33;5.37;;;;;;;;;;5002460;28;20044;-71
2023/03/07 12:52:39;;;;;;;10.38;4.70;;;;;;;;;;4983287;28;20029;-72
2023/03/07 12:55:15;;;;;;;9.18;5.15;;;;;;;;;;5012303;28;20140;-77
2023/03/07 12:57:44;;;;;;;9.35;5.13;;;;;;;;;;5012048;28;20044;-77
2023/03/07 13:00:11;;;;;;;9.52;4.75;;;;;;;;;;5012297;28;20025;-77
2023/03/07 13:02:48;;;;;;;10.52;4.80;;;;;;;;;;5012030;28;20451;-78
2023/03/07 13:05:20;;;;;;;12.40;5.65;;;;;;;;;;4994537;28;20117;-76
2023/03/07 13:07:46;;;;;;;10.68;4.85;;;;;;;;;;5012277;28;20241;-71
2023/03/07 13:10:15;;;;;;;9.73;4.82;;;;;;;;;;5011494;28;20042;-72
2023/03/07 13:12:40;;;;;;;10.63;4.75;;;;;;;;;;5011497;28;20072;-71
2023/03/07 13:15:26;;;;;;;10.57;5.20;;;;;;;;;;4994241;28;20061;-71
2023/03/07 13:17:56;;;;;;;9.57;5.07;;;;;;;;;;4993575;28;20453;-72
2023/03/07 13:20:21;;;;;;;;;;;;;;;;;;4994364;28;20014;-71
2023/03/07 13:22:46;;;;;;;8.48;4.10;;;;;;;;;;5011493;28;19914;-72
2023/03/07 13:25:18;;;;;;;7.60;4.40;;;;;;;;;;5002421;28;20433;-72
2023/03/07 13:27:45;;;;;;;8.85;4.25;;;;;;;;;;5011768;28;20265;-72
2023/03/07 13:30:20;;;;;;;9.98;4.65;;;;;;;;;;4993254;28;20049;-72
2023/03/07 13:32:45;;;;;;;8.45;4.22;;;;;;;;;;5010513;28;20043;-74
2023/03/07 13:35:10;;;;;;;10.13;4.07;;;;;;;;;;5010556;28;20021;-71
2023/03/07 13:37:55;;;;;;;8.32;3.92;;;;;;;;;;4993245;28;20288;-72
2023/03/07 13:40:29;;;;;;;7.97;4.55;;;;;;;;;;4995642;28;20033;-70
2023/03/07 13:42:54;;;;;;;7.68;3.83;;;;;;;;;;4993585;28;20022;-70
2023/03/07 13:45:38;;;;;;;7.90;4.13;;;;;;;;;;4993554;28;20500;-73
2023/03/07 13:48:11;;;;;;;7.72;3.72;;;;;;;;;;4993191;28;20036;-73
2023/03/07 13:50:36;;;;;;;9.10;4.00;;;;;;;;;;4988619;28;20026;-72
2023/03/07 13:53:06;;;;;;;6.70;3.72;;;;;;;;;;4982354;28;20567;-74
2023/03/07 13:55:32;;;;;;;;;;;;;;;;;;4995652;28;20049;-73
2023/03/07 13:58:02;;;;;;;8.90;3.80;;;;;;;;;;4999224;28;19921;-72
2023/03/07 14:00:30;;;;;;;7.85;4.25;;;;;;;;;;5010867;28;20202;-72
2023/03/07 14:02:56;;;;;;;4.65;2.85;;;;;;;;;;5010505;28;20491;-71
2023/03/07 14:05:22;;;;;;;7.45;4.20;;;;;;;;;;5010582;28;20042;-72
2023/03/07 14:07:50;;;;;;;6.18;3.42;;;;;;;;;;5024321;28;20432;-80
2023/03/07 14:10:17;;;;;;;6.95;3.45;;;;;;;;;;4992761;28;20386;-79
2023/03/07 14:12:54;;;;;;;7.30;4.03;;;;;;;;;;4987706;28;20092;-81
2023/03/07 14:15:20;;;;;;;7.40;3.85;;;;;;;;;;4986432;28;20026;-75
2023/03/07 14:17:52;;;;;;;7.18;3.55;;;;;;;;;;5000983;28;20723;-76
2023/03/07 14:20:26;;;;;;;6.82;3.60;;;;;;;;;;4980670;28;20105;-80
2023/03/07 14:22:54;;;;;;;6.53;3.60;;;;;;;;;;5001580;28;20034;-74
2023/03/07 14:25:38;;;;;;;7.57;4.45;;;;;;;;;;4980783;28;20121;-73
2023/03/07 14:28:25;;;;;;;9.15;4.15;;;;;;;;;;5006997;28;20022;-72
2023/03/07 14:31:03;;;;;;;7.50;3.88;;;;;;;;;;5003400;28;20488;-76
2023/03/07 14:33:30;;;;;;;6.93;3.17;;;;;;;;;;5004153;28;20026;-73
2023/03/07 14:35:55;;;;;;;6.60;3.08;;;;;;;;;;4999768;28;20061;-70
2023/03/07 14:38:22;;;;;;;6.47;3.97;;;;;;;;;;4978227;28;20062;-71